sensor_id;sensor_type;location;lat;lon;timestamp;pressure;altitude;pressure_sealevel;temperature;humidity
5126;BME280;63008;53.112;8.896;2023-03-04T00:00:10;102261.16;;;6.21;81.64
5126;BME280;63008;53.112;8.896;2023-03-04T00:02:11;102258.44;;;6.21;81.69
5126;BME280;63008;53.112;8.896;2023-03-04T00:04:12;102253.25;;;6.25;81.34
5126;BME280;63008;53.112;8.896;2023-03-04T00:06:13;102249.16;;;6.22;81.63
5126;BME280;63008;53.112;8.896;2023-03-04T00:08:14;102253.81;;;6.27;81.22
5126;BME280;63008;53.112;8.896;2023-03-04T00:10:15;102248.88;;;6.24;81.71
5126;BME280;63008;53.112;8.896;2023-03-04T00:12:16;102253.53;;;6.23;81.88
5126;BME280;63008;53.112;8.896;2023-03-04T00:14:17;102248.88;;;6.19;81.89
5126;BME280;63008;53.112;8.896;2023-03-04T00:16:18;102251.34;;;6.25;81.69
5126;BME280;63008;53.112;8.896;2023-03-04T00:18:19;102244.25;;;6.24;81.59
5126;BME280;63008;53.112;8.896;2023-03-04T00:20:20;102243.19;;;6.25;81.61
5126;BME280;63008;53.112;8.896;2023-03-04T00:22:21;102245.06;;;6.20;82.03
5126;BME280;63008;53.112;8.896;2023-03-04T00:24:22;102242.63;;;6.18;82.40
5126;BME280;63008;53.112;8.896;2023-03-04T00:26:24;102252.44;;;6.19;82.48
5126;BME280;63008;53.112;8.896;2023-03-04T00:28:25;102241.78;;;6.18;82.52
5126;BME280;63008;53.112;8.896;2023-03-04T00:30:26;102240.41;;;6.15;82.67
5126;BME280;63008;53.112;8.896;2023-03-04T00:32:27;102244.50;;;6.13;82.67
5126;BME280;63008;53.112;8.896;2023-03-04T00:34:28;102238.53;;;6.21;82.54
5126;BME280;63008;53.112;8.896;2023-03-04T00:36:29;102233.84;;;6.11;83.00
5126;BME280;63008;53.112;8.896;2023-03-04T00:38:30;102229.50;;;6.15;83.05
5126;BME280;63008;53.112;8.896;2023-03-04T00:40:31;102227.63;;;6.21;82.59
5126;BME280;63008;53.112;8.896;2023-03-04T00:42:32;102233.91;;;6.16;83.05
5126;BME280;63008;53.112;8.896;2023-03-04T00:44:33;102229.50;;;6.15;83.36
5126;BME280;63008;53.112;8.896;2023-03-04T00:46:34;102229.00;;;6.23;82.99
5126;BME280;63008;53.112;8.896;2023-03-04T00:48:35;102232.81;;;6.22;83.07
5126;BME280;63008;53.112;8.896;2023-03-04T00:50:38;102233.91;;;6.26;83.02
5126;BME280;63008;53.112;8.896;2023-03-04T00:52:39;102225.44;;;6.23;83.21
5126;BME280;63008;53.112;8.896;2023-03-04T00:54:41;102223.25;;;6.20;83.82
5126;BME280;63008;53.112;8.896;2023-03-04T00:56:42;102217.00;;;6.19;83.89
5126;BME280;63008;53.112;8.896;2023-03-04T00:58:43;102216.72;;;6.21;83.89
5126;BME280;63008;53.112;8.896;2023-03-04T01:00:44;102223.25;;;6.15;84.11
5126;BME280;63008;53.112;8.896;2023-03-04T01:02:45;102218.63;;;6.20;84.09
5126;BME280;63008;53.112;8.896;2023-03-04T01:04:46;102227.91;;;6.19;84.02
5126;BME280;63008;53.112;8.896;2023-03-04T01:06:47;102211.25;;;6.21;83.87
5126;BME280;63008;53.112;8.896;2023-03-04T01:08:48;102219.72;;;6.24;83.78
5126;BME280;63008;53.112;8.896;2023-03-04T01:10:49;102214.03;;;6.26;83.63
5126;BME280;63008;53.112;8.896;2023-03-04T01:12:50;102216.47;;;6.22;83.67
5126;BME280;63008;53.112;8.896;2023-03-04T01:14:51;102209.91;;;6.18;83.96
5126;BME280;63008;53.112;8.896;2023-03-04T01:16:52;102210.44;;;6.15;84.51
5126;BME280;63008;53.112;8.896;2023-03-04T01:18:54;102209.91;;;6.23;83.86
5126;BME280;63008;53.112;8.896;2023-03-04T01:20:55;102201.75;;;6.23;83.88
5126;BME280;63008;53.112;8.896;2023-03-04T01:22:56;102205.81;;;6.16;84.15
5126;BME280;63008;53.112;8.896;2023-03-04T01:24:57;102200.09;;;6.17;84.33
5126;BME280;63008;53.112;8.896;2023-03-04T01:26:58;102207.44;;;6.17;84.58
5126;BME280;63008;53.112;8.896;2023-03-04T01:28:59;102197.09;;;6.24;83.40
5126;BME280;63008;53.112;8.896;2023-03-04T01:31:02;102191.38;;;6.20;83.60
5126;BME280;63008;53.112;8.896;2023-03-04T01:33:03;102196.59;;;6.27;83.52
5126;BME280;63008;53.112;8.896;2023-03-04T01:35:04;102202.28;;;6.30;83.29
5126;BME280;63008;53.112;8.896;2023-03-04T01:37:05;102194.94;;;6.26;83.51
5126;BME280;63008;53.112;8.896;2023-03-04T01:39:06;102192.47;;;6.24;83.82
5126;BME280;63008;53.112;8.896;2023-03-04T01:41:07;102191.94;;;6.22;83.98
5126;BME280;63008;53.112;8.896;2023-03-04T01:43:15;102189.19;;;6.22;83.96
5126;BME280;63008;53.112;8.896;2023-03-04T01:45:19;102190.28;;;6.21;84.26
5126;BME280;63008;53.112;8.896;2023-03-04T01:47:21;102180.44;;;6.15;84.24
5126;BME280;63008;53.112;8.896;2023-03-04T01:49:24;102188.38;;;6.17;84.14
5126;BME280;63008;53.112;8.896;2023-03-04T01:51:25;102183.47;;;6.14;83.93
5126;BME280;63008;53.112;8.896;2023-03-04T01:53:26;102177.75;;;6.20;83.93
5126;BME280;63008;53.112;8.896;2023-03-04T01:55:29;102176.66;;;6.21;83.94
5126;BME280;63008;53.112;8.896;2023-03-04T01:57:34;102171.75;;;6.18;84.02
5126;BME280;63008;53.112;8.896;2023-03-04T01:59:35;102171.47;;;6.15;84.36
5126;BME280;63008;53.112;8.896;2023-03-04T02:01:37;102169.28;;;6.12;84.62
5126;BME280;63008;53.112;8.896;2023-03-04T02:03:38;102171.47;;;6.15;84.75
5126;BME280;63008;53.112;8.896;2023-03-04T02:05:42;102168.47;;;6.11;84.45
5126;BME280;63008;53.112;8.896;2023-03-04T02:07:44;102171.19;;;6.11;84.53
5126;BME280;63008;53.112;8.896;2023-03-04T02:09:47;102159.19;;;6.07;84.87
5126;BME280;63008;53.112;8.896;2023-03-04T02:11:50;102161.38;;;6.10;84.51
5126;BME280;63008;53.112;8.896;2023-03-04T02:13:52;102160.81;;;6.08;84.79
5126;BME280;63008;53.112;8.896;2023-03-04T02:15:53;102161.09;;;6.07;84.48
5126;BME280;63008;53.112;8.896;2023-03-04T02:17:54;102149.66;;;6.15;84.06
5126;BME280;63008;53.112;8.896;2023-03-04T02:20:07;102151.31;;;6.21;83.84
5126;BME280;63008;53.112;8.896;2023-03-04T02:22:12;102142.84;;;6.12;83.66
5126;BME280;63008;53.112;8.896;2023-03-04T02:24:17;102139.56;;;6.15;83.55
5126;BME280;63008;53.112;8.896;2023-03-04T02:26:21;102132.50;;;6.29;82.17
5126;BME280;63008;53.112;8.896;2023-03-04T02:28:23;102136.03;;;6.15;82.87
5126;BME280;63008;53.112;8.896;2023-03-04T02:30:24;102128.13;;;6.13;83.33
5126;BME280;63008;53.112;8.896;2023-03-04T02:32:27;102130.06;;;6.13;83.31
5126;BME280;63008;53.112;8.896;2023-03-04T02:34:31;102133.59;;;6.18;82.89
5126;BME280;63008;53.112;8.896;2023-03-04T02:36:33;102126.53;;;6.22;82.71
5126;BME280;63008;53.112;8.896;2023-03-04T02:38:34;102128.16;;;6.28;81.80
5126;BME280;63008;53.112;8.896;2023-03-04T02:40:36;102132.25;;;6.31;81.33
5126;BME280;63008;53.112;8.896;2023-03-04T02:42:38;102124.88;;;6.26;81.82
5126;BME280;63008;53.112;8.896;2023-03-04T02:44:42;102130.31;;;6.26;81.70
5126;BME280;63008;53.112;8.896;2023-03-04T02:46:46;102121.59;;;6.24;82.00
5126;BME280;63008;53.112;8.896;2023-03-04T02:48:49;102114.81;;;6.27;81.99
5126;BME280;63008;53.112;8.896;2023-03-04T02:50:51;102112.88;;;6.27;82.01
5126;BME280;63008;53.112;8.896;2023-03-04T02:52:53;102111.53;;;6.30;81.93
5126;BME280;63008;53.112;8.896;2023-03-04T02:54:54;102109.63;;;6.25;81.94
5126;BME280;63008;53.112;8.896;2023-03-04T02:56:57;102112.34;;;6.30;82.17
5126;BME280;63008;53.112;8.896;2023-03-04T02:58:58;102115.91;;;6.31;82.57
5126;BME280;63008;53.112;8.896;2023-03-04T03:00:59;102104.72;;;6.27;83.01
5126;BME280;63008;53.112;8.896;2023-03-04T03:03:00;102109.34;;;6.27;83.26
5126;BME280;63008;53.112;8.896;2023-03-04T03:05:02;102110.16;;;6.27;83.78
5126;BME280;63008;53.112;8.896;2023-03-04T03:07:03;102107.44;;;6.17;84.30
5126;BME280;63008;53.112;8.896;2023-03-04T03:09:05;102102.78;;;6.23;84.28
5126;BME280;63008;53.112;8.896;2023-03-04T03:11:06;102100.63;;;6.15;84.56
5126;BME280;63008;53.112;8.896;2023-03-04T03:13:07;102090.53;;;6.15;84.79
5126;BME280;63008;53.112;8.896;2023-03-04T03:15:08;102091.91;;;6.18;84.95
5126;BME280;63008;53.112;8.896;2023-03-04T03:17:09;102098.69;;;6.10;85.32
5126;BME280;63008;53.112;8.896;2023-03-04T03:19:10;102100.88;;;6.13;85.21
5126;BME280;63008;53.112;8.896;2023-03-04T03:21:11;102091.91;;;6.13;85.15
5126;BME280;63008;53.112;8.896;2023-03-04T03:23:12;102098.69;;;6.10;85.27
5126;BME280;63008;53.112;8.896;2023-03-04T03:25:14;102089.19;;;6.08;85.27
5126;BME280;63008;53.112;8.896;2023-03-04T03:27:16;102089.19;;;6.08;85.42
5126;BME280;63008;53.112;8.896;2023-03-04T03:29:17;102087.53;;;6.12;85.27
5126;BME280;63008;53.112;8.896;2023-03-04T03:31:18;102086.16;;;6.14;84.74
5126;BME280;63008;53.112;8.896;2023-03-04T03:33:19;102085.91;;;6.11;85.00
5126;BME280;63008;53.112;8.896;2023-03-04T03:35:20;102084.53;;;6.13;84.70
5126;BME280;63008;53.112;8.896;2023-03-04T03:37:21;102077.47;;;6.17;84.47
5126;BME280;63008;53.112;8.896;2023-03-04T03:39:22;102081.00;;;6.13;84.26
5126;BME280;63008;53.112;8.896;2023-03-04T03:41:23;102076.34;;;6.08;84.90
5126;BME280;63008;53.112;8.896;2023-03-04T03:43:24;102078.81;;;6.10;84.94
5126;BME280;63008;53.112;8.896;2023-03-04T03:45:25;102076.09;;;6.15;84.51
5126;BME280;63008;53.112;8.896;2023-03-04T03:47:26;102080.19;;;6.17;84.32
5126;BME280;63008;53.112;8.896;2023-03-04T03:49:27;102070.09;;;6.18;84.30
5126;BME280;63008;53.112;8.896;2023-03-04T03:51:28;102067.09;;;6.19;83.95
5126;BME280;63008;53.112;8.896;2023-03-04T03:53:29;102069.53;;;6.21;83.89
5126;BME280;63008;53.112;8.896;2023-03-04T03:55:33;102070.09;;;6.23;83.78
5126;BME280;63008;53.112;8.896;2023-03-04T03:57:34;102072.81;;;6.18;84.09
5126;BME280;63008;53.112;8.896;2023-03-04T03:59:35;102072.53;;;6.14;84.71
5126;BME280;63008;53.112;8.896;2023-03-04T04:01:41;102074.72;;;6.12;85.03
5126;BME280;63008;53.112;8.896;2023-03-04T04:03:42;102066.28;;;6.14;85.12
5126;BME280;63008;53.112;8.896;2023-03-04T04:05:43;102064.66;;;6.13;85.44
5126;BME280;63008;53.112;8.896;2023-03-04T04:07:44;102064.91;;;6.06;85.71
5126;BME280;63008;53.112;8.896;2023-03-04T04:09:45;102063.81;;;6.02;86.19
5126;BME280;63008;53.112;8.896;2023-03-04T04:11:45;102065.44;;;5.98;86.75
5126;BME280;63008;53.112;8.896;2023-03-04T04:13:46;102063.28;;;6.00;87.26
5126;BME280;63008;53.112;8.896;2023-03-04T04:15:50;102062.72;;;5.98;87.33
5126;BME280;63008;53.112;8.896;2023-03-04T04:17:51;102055.91;;;5.96;87.88
5126;BME280;63008;53.112;8.896;2023-03-04T04:19:52;102056.72;;;5.91;88.15
5126;BME280;63008;53.112;8.896;2023-03-04T04:21:53;102055.63;;;5.87;88.84
5126;BME280;63008;53.112;8.896;2023-03-04T04:23:54;102052.63;;;5.79;89.30
5126;BME280;63008;53.112;8.896;2023-03-04T04:25:55;102056.72;;;5.81;89.39
5126;BME280;63008;53.112;8.896;2023-03-04T04:27:56;102045.28;;;5.84;89.75
5126;BME280;63008;53.112;8.896;2023-03-04T04:29:57;102050.19;;;5.87;89.73
5126;BME280;63008;53.112;8.896;2023-03-04T04:31:58;102050.19;;;5.87;89.77
5126;BME280;63008;53.112;8.896;2023-03-04T04:33:59;102049.09;;;5.83;90.36
5126;BME280;63008;53.112;8.896;2023-03-04T04:36:00;102052.91;;;5.82;91.12
5126;BME280;63008;53.112;8.896;2023-03-04T04:38:01;102056.13;;;5.74;92.27
5126;BME280;63008;53.112;8.896;2023-03-04T04:40:03;102046.84;;;5.75;92.95
5126;BME280;63008;53.112;8.896;2023-03-04T04:42:04;102051.47;;;5.65;93.56
5126;BME280;63008;53.112;8.896;2023-03-04T04:44:06;102051.19;;;5.61;93.79
5126;BME280;63008;53.112;8.896;2023-03-04T04:46:07;102047.38;;;5.57;94.43
5126;BME280;63008;53.112;8.896;2023-03-04T04:48:08;102050.34;;;5.51;94.95
5126;BME280;63008;53.112;8.896;2023-03-04T04:50:10;102048.72;;;5.50;95.94
5126;BME280;63008;53.112;8.896;2023-03-04T04:52:11;102053.59;;;5.53;96.16
5126;BME280;63008;53.112;8.896;2023-03-04T04:54:13;102049.00;;;5.53;96.30
5126;BME280;63008;53.112;8.896;2023-03-04T04:56:17;102049.25;;;5.52;96.34
5126;BME280;63008;53.112;8.896;2023-03-04T04:58:19;102051.69;;;5.43;96.51
5126;BME280;63008;53.112;8.896;2023-03-04T05:00:20;102050.88;;;5.48;97.04
5126;BME280;63008;53.112;8.896;2023-03-04T05:02:21;102050.34;;;5.41;97.37
5126;BME280;63008;53.112;8.896;2023-03-04T05:04:22;102049.78;;;5.49;97.41
5126;BME280;63008;53.112;8.896;2023-03-04T05:06:23;102050.59;;;5.39;97.33
5126;BME280;63008;53.112;8.896;2023-03-04T05:08:24;102043.25;;;5.45;97.23
5126;BME280;63008;53.112;8.896;2023-03-04T05:10:25;102046.53;;;5.47;97.18
5126;BME280;63008;53.112;8.896;2023-03-04T05:12:26;102039.75;;;5.49;96.99
5126;BME280;63008;53.112;8.896;2023-03-04T05:14:27;102040.00;;;5.48;96.69
5126;BME280;63008;53.112;8.896;2023-03-04T05:16:28;102035.09;;;5.45;96.99
5126;BME280;63008;53.112;8.896;2023-03-04T05:18:29;102034.84;;;5.46;97.15
5126;BME280;63008;53.112;8.896;2023-03-04T05:20:30;102036.72;;;5.46;97.62
5126;BME280;63008;53.112;8.896;2023-03-04T05:22:31;102026.69;;;5.51;97.44
5126;BME280;63008;53.112;8.896;2023-03-04T05:24:32;102027.47;;;5.52;97.58
5126;BME280;63008;53.112;8.896;2023-03-04T05:26:34;102032.38;;;5.50;98.22
5126;BME280;63008;53.112;8.896;2023-03-04T05:28:35;102021.78;;;5.48;98.35
5126;BME280;63008;53.112;8.896;2023-03-04T05:30:38;102035.13;;;5.55;98.34
5126;BME280;63008;53.112;8.896;2023-03-04T05:32:39;102026.97;;;5.55;98.24
5126;BME280;63008;53.112;8.896;2023-03-04T05:34:40;102031.88;;;5.58;97.99
5126;BME280;63008;53.112;8.896;2023-03-04T05:36:41;102040.53;;;5.50;98.53
5126;BME280;63008;53.112;8.896;2023-03-04T05:38:42;102032.94;;;5.57;98.85
5126;BME280;63008;53.112;8.896;2023-03-04T05:40:44;102030.78;;;5.59;98.75
5126;BME280;63008;53.112;8.896;2023-03-04T05:42:45;102037.56;;;5.56;98.97
5126;BME280;63008;53.112;8.896;2023-03-04T05:44:46;102036.22;;;5.59;98.80
5126;BME280;63008;53.112;8.896;2023-03-04T05:46:47;102040.56;;;5.55;98.86
5126;BME280;63008;53.112;8.896;2023-03-04T05:48:48;102029.94;;;5.58;98.76
5126;BME280;63008;53.112;8.896;2023-03-04T05:50:57;102041.66;;;5.64;98.38
5126;BME280;63008;53.112;8.896;2023-03-04T05:52:58;102034.03;;;5.66;98.34
5126;BME280;63008;53.112;8.896;2023-03-04T05:54:59;102035.97;;;5.65;98.57
5126;BME280;63008;53.112;8.896;2023-03-04T05:57:00;102036.22;;;5.59;98.75
5126;BME280;63008;53.112;8.896;2023-03-04T05:59:02;102033.50;;;5.64;98.96
5126;BME280;63008;53.112;8.896;2023-03-04T06:01:03;102036.47;;;5.62;99.15
5126;BME280;63008;53.112;8.896;2023-03-04T06:03:04;102047.13;;;5.64;99.34
5126;BME280;63008;53.112;8.896;2023-03-04T06:05:07;102046.56;;;5.62;99.30
5126;BME280;63008;53.112;8.896;2023-03-04T06:07:08;102031.03;;;5.57;99.81
5126;BME280;63008;53.112;8.896;2023-03-04T06:09:09;102036.47;;;5.57;99.52
5126;BME280;63008;53.112;8.896;2023-03-04T06:11:10;102038.13;;;5.58;99.67
5126;BME280;63008;53.112;8.896;2023-03-04T06:13:11;102034.03;;;5.56;99.79
5126;BME280;63008;53.112;8.896;2023-03-04T06:15:12;102033.50;;;5.64;99.84
5126;BME280;63008;53.112;8.896;2023-03-04T06:17:13;102033.22;;;5.60;99.68
5126;BME280;63008;53.112;8.896;2023-03-04T06:19:14;102033.25;;;5.65;99.97
5126;BME280;63008;53.112;8.896;2023-03-04T06:21:15;102037.59;;;5.66;99.74
5126;BME280;63008;53.112;8.896;2023-03-04T06:23:16;102041.41;;;5.65;99.99
5126;BME280;63008;53.112;8.896;2023-03-04T06:25:17;102041.41;;;5.65;100.00
5126;BME280;63008;53.112;8.896;2023-03-04T06:27:18;102037.59;;;5.66;100.00
5126;BME280;63008;53.112;8.896;2023-03-04T06:29:19;102037.31;;;5.68;100.00
5126;BME280;63008;53.112;8.896;2023-03-04T06:31:20;102038.41;;;5.72;100.00
5126;BME280;63008;53.112;8.896;2023-03-04T06:33:22;102038.94;;;5.69;100.00
5126;BME280;63008;53.112;8.896;2023-03-04T06:35:23;102044.13;;;5.70;100.00
5126;BME280;63008;53.112;8.896;2023-03-04T06:37:24;102044.94;;;5.66;100.00
5126;BME280;63008;53.112;8.896;2023-03-04T06:39:25;102053.41;;;5.69;100.00
5126;BME280;63008;53.112;8.896;2023-03-04T06:41:26;102049.59;;;5.70;100.00
5126;BME280;63008;53.112;8.896;2023-03-04T06:43:27;102043.84;;;5.72;100.00
5126;BME280;63008;53.112;8.896;2023-03-04T06:45:28;102048.19;;;5.68;100.00
5126;BME280;63008;53.112;8.896;2023-03-04T06:47:29;102047.94;;;5.69;100.00
5126;BME280;63008;53.112;8.896;2023-03-04T06:49:30;102050.13;;;5.72;100.00
5126;BME280;63008;53.112;8.896;2023-03-04T06:51:31;102047.69;;;5.76;100.00
5126;BME280;63008;53.112;8.896;2023-03-04T06:53:32;102056.16;;;5.79;100.00
5126;BME280;63008;53.112;8.896;2023-03-04T06:55:33;102050.97;;;5.78;100.00
5126;BME280;63008;53.112;8.896;2023-03-04T06:57:34;102053.16;;;5.81;100.00
5126;BME280;63008;53.112;8.896;2023-03-04T06:59:35;102055.34;;;5.84;100.00
5126;BME280;63008;53.112;8.896;2023-03-04T07:01:36;102049.91;;;5.84;99.96
5126;BME280;63008;53.112;8.896;2023-03-04T07:03:37;102060.25;;;5.87;99.23
5126;BME280;63008;53.112;8.896;2023-03-04T07:05:38;102059.69;;;5.85;98.38
5126;BME280;63008;53.112;8.896;2023-03-04T07:07:40;102060.00;;;5.83;98.48
5126;BME280;63008;53.112;8.896;2023-03-04T07:09:41;102065.16;;;5.85;99.16
5126;BME280;63008;53.112;8.896;2023-03-04T07:11:42;102058.63;;;5.86;99.22
5126;BME280;63008;53.112;8.896;2023-03-04T07:13:43;102060.00;;;5.88;99.53
5126;BME280;63008;53.112;8.896;2023-03-04T07:15:44;102069.53;;;5.96;99.40
5126;BME280;63008;53.112;8.896;2023-03-04T07:17:45;102056.72;;;5.96;98.91
5126;BME280;63008;53.112;8.896;2023-03-04T07:19:46;102063.00;;;5.97;99.00
5126;BME280;63008;53.112;8.896;2023-03-04T07:21:47;102061.06;;;5.97;98.86
5126;BME280;63008;53.112;8.896;2023-03-04T07:23:49;102061.91;;;5.98;97.69
5126;BME280;63008;53.112;8.896;2023-03-04T07:25:50;102055.63;;;5.97;97.30
5126;BME280;63008;53.112;8.896;2023-03-04T07:27:51;102066.56;;;6.02;96.66
5126;BME280;63008;53.112;8.896;2023-03-04T07:29:52;102063.53;;;6.04;96.40
5126;BME280;63008;53.112;8.896;2023-03-04T07:31:53;102066.25;;;6.04;95.82
5126;BME280;63008;53.112;8.896;2023-03-04T07:33:56;102057.00;;;6.05;94.89
5126;BME280;63008;53.112;8.896;2023-03-04T07:35:59;102055.66;;;6.07;90.59
5126;BME280;63008;53.112;8.896;2023-03-04T07:38:00;102061.09;;;6.12;91.35
5126;BME280;63008;53.112;8.896;2023-03-04T07:40:01;102064.38;;;6.19;90.27
5126;BME280;63008;53.112;8.896;2023-03-04T07:42:02;102074.72;;;6.27;88.13
5126;BME280;63008;53.112;8.896;2023-03-04T07:44:04;102075.00;;;6.21;87.50
5126;BME280;63008;53.112;8.896;2023-03-04T07:46:05;102078.28;;;6.18;89.06
5126;BME280;63008;53.112;8.896;2023-03-04T07:48:06;102073.09;;;6.16;89.44
5126;BME280;63008;53.112;8.896;2023-03-04T07:50:10;102071.19;;;6.17;89.69
5126;BME280;63008;53.112;8.896;2023-03-04T07:52:11;102076.38;;;6.23;90.59
5126;BME280;63008;53.112;8.896;2023-03-04T07:54:14;102075.56;;;6.28;91.27
5126;BME280;63008;53.112;8.896;2023-03-04T07:56:18;102068.47;;;6.27;91.86
5126;BME280;63008;53.112;8.896;2023-03-04T07:58:20;102078.00;;;6.29;92.09
5126;BME280;63008;53.112;8.896;2023-03-04T08:00:24;102064.38;;;6.34;91.60
5126;BME280;63008;53.112;8.896;2023-03-04T08:02:25;102063.84;;;6.37;91.27
5126;BME280;63008;53.112;8.896;2023-03-04T08:04:26;102071.75;;;6.44;91.33
5126;BME280;63008;53.112;8.896;2023-03-04T08:06:27;102064.09;;;6.46;89.82
5126;BME280;63008;53.112;8.896;2023-03-04T08:08:28;102061.66;;;6.34;88.93
5126;BME280;63008;53.112;8.896;2023-03-04T08:10:29;102073.63;;;6.43;88.68
5126;BME280;63008;53.112;8.896;2023-03-04T08:12:30;102067.38;;;6.43;89.18
5126;BME280;63008;53.112;8.896;2023-03-04T08:14:31;102066.00;;;6.45;88.83
5126;BME280;63008;53.112;8.896;2023-03-04T08:16:33;102062.44;;;6.40;87.26
5126;BME280;63008;53.112;8.896;2023-03-04T08:18:34;102062.19;;;6.41;86.71
5126;BME280;63008;53.112;8.896;2023-03-04T08:20:35;102071.72;;;6.39;84.18
5126;BME280;63008;53.112;8.896;2023-03-04T08:22:36;102070.09;;;6.33;83.54
5126;BME280;63008;53.112;8.896;2023-03-04T08:24:37;102077.44;;;6.32;84.37
5126;BME280;63008;53.112;8.896;2023-03-04T08:26:42;102085.09;;;6.25;84.20
5126;BME280;63008;53.112;8.896;2023-03-04T08:28:43;102079.09;;;6.23;84.84
5126;BME280;63008;53.112;8.896;2023-03-04T08:30:51;102084.53;;;6.13;84.84
5126;BME280;63008;53.112;8.896;2023-03-04T08:32:52;102093.25;;;6.10;86.16
5126;BME280;63008;53.112;8.896;2023-03-04T08:34:53;102084.53;;;6.08;86.95
5126;BME280;63008;53.112;8.896;2023-03-04T08:36:55;102097.31;;;6.03;86.65
5126;BME280;63008;53.112;8.896;2023-03-04T08:38:56;102091.88;;;6.03;87.33
5126;BME280;63008;53.112;8.896;2023-03-04T08:40:57;102092.41;;;6.00;85.48
5126;BME280;63008;53.112;8.896;2023-03-04T08:42:58;102084.28;;;6.10;85.85
5126;BME280;63008;53.112;8.896;2023-03-04T08:45:00;102092.16;;;6.11;85.28
5126;BME280;63008;53.112;8.896;2023-03-04T08:47:01;102094.34;;;6.14;84.49
5126;BME280;63008;53.112;8.896;2023-03-04T08:49:02;102088.34;;;6.12;83.05
5126;BME280;63008;53.112;8.896;2023-03-04T08:51:08;102085.63;;;6.22;83.98
5126;BME280;63008;53.112;8.896;2023-03-04T08:53:10;102087.53;;;6.32;83.40
5126;BME280;63008;53.112;8.896;2023-03-04T08:55:11;102086.47;;;6.28;81.56
5126;BME280;63008;53.112;8.896;2023-03-04T08:57:12;102094.88;;;6.31;81.54
5126;BME280;63008;53.112;8.896;2023-03-04T08:59:13;102103.06;;;6.26;80.51
5126;BME280;63008;53.112;8.896;2023-03-04T09:01:14;102092.72;;;6.23;80.31
5126;BME280;63008;53.112;8.896;2023-03-04T09:03:16;102110.44;;;6.16;81.11
5126;BME280;63008;53.112;8.896;2023-03-04T09:05:19;102097.28;;;5.88;82.78
5126;BME280;63008;53.112;8.896;2023-03-04T09:07:20;102110.63;;;5.79;84.38
5126;BME280;63008;53.112;8.896;2023-03-04T09:09:21;102106.22;;;5.73;85.34
5126;BME280;63008;53.112;8.896;2023-03-04T09:11:24;102108.41;;;5.71;86.24
5126;BME280;63008;53.112;8.896;2023-03-04T09:13:28;102106.47;;;5.72;85.86
5126;BME280;63008;53.112;8.896;2023-03-04T09:15:29;102106.50;;;5.77;86.59
5126;BME280;63008;53.112;8.896;2023-03-04T09:17:31;102110.09;;;5.82;86.60
5126;BME280;63008;53.112;8.896;2023-03-04T09:19:32;102099.22;;;5.97;87.29
5126;BME280;63008;53.112;8.896;2023-03-04T09:21:33;102106.63;;;6.12;86.73
5126;BME280;63008;53.112;8.896;2023-03-04T09:23:35;102111.81;;;6.18;84.14
5126;BME280;63008;53.112;8.896;2023-03-04T09:25:37;102107.72;;;6.31;83.17
5126;BME280;63008;53.112;8.896;2023-03-04T09:27:38;102109.56;;;6.85;82.36
5126;BME280;63008;53.112;8.896;2023-03-04T09:29:39;102110.94;;;6.78;81.75
5126;BME280;63008;53.112;8.896;2023-03-04T09:31:40;102114.25;;;6.40;81.24
5126;BME280;63008;53.112;8.896;2023-03-04T09:33:41;102115.91;;;6.31;83.07
5126;BME280;63008;53.112;8.896;2023-03-04T09:35:42;102113.44;;;6.39;82.13
5126;BME280;63008;53.112;8.896;2023-03-04T09:37:44;102117.25;;;6.28;82.36
5126;BME280;63008;53.112;8.896;2023-03-04T09:39:46;102122.16;;;6.26;81.66
5126;BME280;63008;53.112;8.896;2023-03-04T09:41:52;102129.47;;;6.06;81.11
5126;BME280;63008;53.112;8.896;2023-03-04T09:43:57;102127.84;;;6.05;82.36
5126;BME280;63008;53.112;8.896;2023-03-04T09:46:05;102131.13;;;6.12;82.35
5126;BME280;63008;53.112;8.896;2023-03-04T09:48:09;102144.97;;;5.85;83.19
5126;BME280;63008;53.112;8.896;2023-03-04T09:50:12;102129.94;;;5.73;81.55
5126;BME280;63008;53.112;8.896;2023-03-04T09:52:37;102128.66;;;6.00;80.77
5126;BME280;63008;53.112;8.896;2023-03-04T09:55:13;102124.34;;;6.39;81.08
5126;BME280;63008;53.112;8.896;2023-03-04T09:57:20;102124.31;;;6.79;77.26
5126;BME280;63008;53.112;8.896;2023-03-04T09:59:29;102122.88;;;7.21;78.36
5126;BME280;63008;53.112;8.896;2023-03-04T10:01:53;102115.91;;;7.54;74.60
5126;BME280;63008;53.112;8.896;2023-03-04T10:04:02;102111.59;;;7.38;73.92
5126;BME280;63008;53.112;8.896;2023-03-04T10:06:10;102121.50;;;7.19;73.11
5126;BME280;63008;53.112;8.896;2023-03-04T10:08:34;102112.47;;;7.23;72.77
5126;BME280;63008;53.112;8.896;2023-03-04T10:10:39;102111.66;;;7.28;71.11
5126;BME280;63008;53.112;8.896;2023-03-04T10:12:45;102112.69;;;7.37;71.99
5126;BME280;63008;53.112;8.896;2023-03-04T10:14:55;102114.13;;;7.83;70.73
5126;BME280;63008;53.112;8.896;2023-03-04T10:19:54;102115.22;;;8.64;68.86
5126;BME280;63008;53.112;8.896;2023-03-04T10:21:57;102102.00;;;9.22;66.82
5126;BME280;63008;53.112;8.896;2023-03-04T10:24:19;102121.41;;;8.41;69.69
5126;BME280;63008;53.112;8.896;2023-03-04T10:26:22;102112.59;;;8.10;71.01
5126;BME280;63008;53.112;8.896;2023-03-04T10:28:29;102127.75;;;7.93;71.25
5126;BME280;63008;53.112;8.896;2023-03-04T10:30:55;102123.78;;;7.65;74.30
5126;BME280;63008;53.112;8.896;2023-03-04T10:32:57;102122.41;;;6.85;77.26
5126;BME280;63008;53.112;8.896;2023-03-04T10:34:58;102139.00;;;5.98;79.00
5126;BME280;63008;53.112;8.896;2023-03-04T10:37:05;102128.38;;;5.97;82.89
5126;BME280;63008;53.112;8.896;2023-03-04T10:39:10;102120.50;;;6.15;82.01
5126;BME280;63008;53.112;8.896;2023-03-04T10:41:19;102119.97;;;6.43;81.91
5126;BME280;63008;53.112;8.896;2023-03-04T10:43:20;102118.06;;;6.59;79.68
5126;BME280;63008;53.112;8.896;2023-03-04T10:45:24;102097.00;;;6.94;78.80
5126;BME280;63008;53.112;8.896;2023-03-04T10:47:28;102109.38;;;7.50;76.86
5126;BME280;63008;53.112;8.896;2023-03-04T10:49:29;102113.78;;;7.46;76.66
5126;BME280;63008;53.112;8.896;2023-03-04T10:51:31;102111.69;;;7.23;76.14
5126;BME280;63008;53.112;8.896;2023-03-04T10:53:36;102104.41;;;7.62;75.20
5126;BME280;63008;53.112;8.896;2023-03-04T10:55:43;102101.31;;;8.22;74.26
5126;BME280;63008;53.112;8.896;2023-03-04T10:58:12;102097.38;;;8.66;74.76